Time;durP1;ratioP1;P1;durP2;ratioP2;P2;SDS_P1;SDS_P2;PMS_P1;PMS_P2;Temp;Humidity;BMP_temperature;BMP_pressure;BME280_temperature;BME280_humidity;BME280_pressure;Samples;Min_cycle;Max_cycle;Signal;HPM_P1;HPM_P2
2023/06/21 00:01:37;;;;;;;53.88;25.85;;;;;;;16.38;100.00;101300.00;5096508;28;20036;-72
2023/06/21 00:04:03;;;;;;;49.20;24.73;;;;;;;16.33;100.00;101306.88;5097025;28;20050;-72
2023/06/21 00:06:29;;;;;;;50.85;27.27;;;;;;;16.27;100.00;101311.09;5078090;28;20059;-71
2023/06/21 00:08:55;;;;;;;54.90;25.40;;;;;;;16.24;100.00;101299.81;5096199;28;20066;-72
2023/06/21 00:11:21;;;;;;;53.13;25.48;;;;;;;16.20;100.00;101305.53;5096110;28;20468;-72
2023/06/21 00:13:46;;;;;;;49.83;25.27;;;;;;;16.19;100.00;101308.38;5096735;28;20059;-72
2023/06/21 00:16:14;;;;;;;53.90;28.10;;;;;;;16.21;100.00;101293.78;5095938;28;20032;-72
2023/06/21 00:18:39;;;;;;;55.28;25.80;;;;;;;16.19;100.00;101292.28;5095593;28;20537;-71
2023/06/21 00:21:04;;;;;;;48.30;24.83;;;;;;;16.13;100.00;101299.13;5095846;28;20040;-72
2023/06/21 00:23:30;;;;;;;63.35;30.30;;;;;;;16.12;100.00;101299.28;5095608;28;20540;-72
2023/06/21 00:25:55;;;;;;;54.78;26.58;;;;;;;16.11;100.00;101311.03;5095387;28;20499;-72
2023/06/21 00:28:21;;;;;;;43.47;23.38;;;;;;;16.04;100.00;101311.69;5096448;28;20479;-72
2023/06/21 00:30:46;;;;;;;75.30;32.17;;;;;;;16.06;100.00;101313.38;5095819;28;20075;-72
2023/06/21 00:33:12;;;;;;;66.07;30.88;;;;;;;16.09;100.00;101321.09;5095993;28;20028;-72
2023/06/21 00:35:37;;;;;;;66.57;29.95;;;;;;;16.06;100.00;101316.88;5095946;28;20097;-72
2023/06/21 00:38:02;;;;;;;64.40;29.67;;;;;;;16.08;100.00;101324.78;5095908;28;20122;-72
2023/06/21 00:40:28;;;;;;;60.78;29.35;;;;;;;16.09;100.00;101329.16;5095561;28;20060;-72
2023/06/21 00:42:54;;;;;;;62.53;27.25;;;;;;;16.09;100.00;101324.63;5095641;28;20525;-72
2023/06/21 00:45:20;;;;;;;54.00;27.13;;;;;;;16.14;100.00;101338.41;5095759;28;20028;-72
2023/06/21 00:47:46;;;;;;;53.20;26.05;;;;;;;16.13;100.00;101333.19;5095432;28;20032;-72
2023/06/21 00:50:12;;;;;;;52.70;25.67;;;;;;;16.12;100.00;101343.09;5095505;28;20039;-72
2023/06/21 00:52:43;;;;;;;48.65;23.70;;;;;;;16.07;100.00;101358.84;5095351;28;20032;-72
2023/06/21 00:55:09;;;;;;;46.45;23.92;;;;;;;16.06;100.00;101367.06;5095377;28;20123;-72
2023/06/21 00:57:35;;;;;;;48.55;22.55;;;;;;;16.05;100.00;101374.28;5095283;28;20468;-72
2023/06/21 01:00:01;;;;;;;43.25;21.55;;;;;;;16.06;100.00;101375.94;5095302;28;20032;-72
2023/06/21 01:02:26;;;;;;;46.90;21.17;;;;;;;16.03;100.00;101371.75;5095410;28;20526;-72
2023/06/21 01:04:52;;;;;;;41.60;20.55;;;;;;;16.01;100.00;101378.28;5095156;28;20114;-72
2023/06/21 01:07:32;;;;;;;44.83;20.52;;;;;;;15.94;100.00;101371.88;5094758;28;20039;-72
2023/06/21 01:10:16;;;;;;;42.25;20.23;;;;;;;15.85;100.00;101379.91;5095334;28;20435;-72
2023/06/21 01:13:04;;;;;;;36.80;19.65;;;;;;;15.80;100.00;101379.53;5095312;28;20028;-72
2023/06/21 01:15:36;;;;;;;38.05;19.45;;;;;;;15.81;100.00;101383.06;5094748;28;20027;-72
2023/06/21 01:18:06;;;;;;;40.63;19.52;;;;;;;15.79;100.00;101377.00;5094677;28;20024;-72
2023/06/21 01:20:34;;;;;;;43.78;21.08;;;;;;;15.80;100.00;101387.56;5095697;28;20075;-72
2023/06/21 01:23:29;;;;;;;40.97;20.80;;;;;;;15.81;100.00;101391.94;5094498;28;20358;-72
2023/06/21 01:25:57;;;;;;;42.38;20.70;;;;;;;15.82;100.00;101390.09;5095555;28;20024;-72
2023/06/21 01:29:06;;;;;;;44.60;20.38;;;;;;;15.79;100.00;101395.78;5094796;28;20098;-71
2023/06/21 01:31:33;;;;;;;43.72;21.55;;;;;;;15.78;100.00;101391.41;5095181;28;20254;-72
2023/06/21 01:34:00;;;;;;;40.67;20.70;;;;;;;15.77;100.00;101390.53;5094611;28;20487;-72
2023/06/21 01:36:25;;;;;;;41.38;21.60;;;;;;;15.75;100.00;101384.50;5094429;28;20085;-72
2023/06/21 01:38:55;;;;;;;44.97;21.33;;;;;;;15.75;100.00;101384.50;5093627;28;20048;-72
2023/06/21 01:41:21;;;;;;;39.08;19.88;;;;;;;15.74;100.00;101388.19;5094892;28;20075;-72
2023/06/21 01:43:46;;;;;;;40.20;20.58;;;;;;;15.70;100.00;101386.81;5094166;28;20476;-72
2023/06/21 01:46:13;;;;;;;39.22;19.00;;;;;;;15.68;100.00;101380.78;5094328;28;20107;-73
2023/06/21 01:48:38;;;;;;;33.75;17.67;;;;;;;15.69;100.00;101380.63;5093969;28;20035;-73
2023/06/21 01:51:04;;;;;;;34.80;16.73;;;;;;;15.66;100.00;101382.78;5094276;28;20032;-72
2023/06/21 01:53:34;;;;;;;28.08;14.32;;;;;;;15.61;100.00;101391.28;5094766;28;20039;-72
2023/06/21 01:56:01;;;;;;;26.63;14.10;;;;;;;15.55;100.00;101388.41;5094004;28;20035;-72
2023/06/21 01:58:28;;;;;;;25.98;12.90;;;;;;;15.53;100.00;101396.63;5094074;28;20109;-72
2023/06/21 02:00:55;;;;;;;19.20;11.50;;;;;;;15.50;100.00;101391.56;5094879;28;20181;-72
2023/06/21 02:03:22;;;;;;;22.48;11.15;;;;;;;15.45;100.00;101388.50;5093864;28;20111;-72
2023/06/21 02:05:49;;;;;;;18.75;10.77;;;;;;;15.40;100.00;101396.19;5094077;28;20106;-72
2023/06/21 02:13:26;;;;;;;18.45;9.45;;;;;;;15.25;100.00;101422.72;5425961;22;20141;-73
2023/06/21 02:16:11;;;;;;;23.90;9.00;;;;;;;15.19;100.00;101429.53;5011269;28;20120;-73
2023/06/21 02:18:36;;;;;;;17.63;7.65;;;;;;;15.16;100.00;101421.81;5010688;28;20069;-72
2023/06/21 02:21:02;;;;;;;16.38;8.05;;;;;;;15.13;100.00;101422.13;5010994;28;20125;-72
2023/06/21 02:23:28;;;;;;;13.13;7.60;;;;;;;15.11;100.00;101413.41;5010557;28;20084;-73
2023/06/21 02:25:53;;;;;;;18.50;7.68;;;;;;;15.06;100.00;101413.88;5010871;28;20046;-73
2023/06/21 02:28:20;;;;;;;11.48;7.07;;;;;;;15.06;100.00;101410.34;5009478;28;20448;-72
2023/06/21 02:30:45;;;;;;;11.02;6.32;;;;;;;15.03;100.00;101410.66;5010164;28;20137;-72
2023/06/21 02:33:11;;;;;;;10.20;6.25;;;;;;;15.01;100.00;101420.69;5010682;28;20128;-73
2023/06/21 02:35:36;;;;;;;12.38;6.20;;;;;;;14.97;100.00;101423.69;5010159;28;20147;-72
2023/06/21 02:38:02;;;;;;;12.95;6.55;;;;;;;14.93;100.00;101433.00;4994339;28;20041;-73
2023/06/21 02:40:28;;;;;;;12.40;6.28;;;;;;;14.91;100.00;101435.03;5010119;28;20436;-71
2023/06/21 02:42:53;;;;;;;11.25;6.45;;;;;;;14.91;100.00;101442.19;5010842;28;20050;-71
2023/06/21 02:45:18;;;;;;;14.10;6.10;;;;;;;14.90;100.00;101440.50;5010389;28;20033;-72
2023/06/21 02:47:44;;;;;;;11.88;6.22;;;;;;;14.91;100.00;101431.47;5026625;28;20046;-73
2023/06/21 02:50:10;;;;;;;9.43;5.88;;;;;;;14.94;100.00;101439.22;5032004;28;20033;-72
2023/06/21 02:52:35;;;;;;;10.82;5.88;;;;;;;14.95;100.00;101438.22;5032020;28;20124;-72
2023/06/21 02:55:03;;;;;;;10.80;5.43;;;;;;;14.97;100.00;101441.56;5032436;28;20038;-72
2023/06/21 02:57:28;;;;;;;15.13;5.97;;;;;;;14.96;100.00;101438.06;5031875;28;20037;-72
2023/06/21 02:59:53;;;;;;;9.05;5.45;;;;;;;14.99;100.00;101448.47;5032229;28;20041;-72
2023/06/21 03:02:19;;;;;;;12.57;5.53;;;;;;;14.98;100.00;101449.47;5031944;28;20459;-72
2023/06/21 03:04:44;;;;;;;9.50;5.43;;;;;;;14.97;100.00;101455.84;5032408;28;20037;-72
2023/06/21 03:07:10;;;;;;;13.52;5.15;;;;;;;14.99;100.00;101455.69;5014613;28;20036;-73
2023/06/21 03:09:35;;;;;;;10.40;5.10;;;;;;;15.00;100.00;101460.03;5031614;28;20053;-72
2023/06/21 03:12:07;;;;;;;9.60;5.53;;;;;;;14.99;100.00;101469.91;5031929;28;20034;-72
2023/06/21 03:14:36;;;;;;;11.27;4.88;;;;;;;14.99;100.00;101477.13;5031702;28;20109;-72
2023/06/21 03:17:02;;;;;;;8.77;4.93;;;;;;;15.02;100.00;101478.63;5031962;28;20112;-73
2023/06/21 03:19:28;;;;;;;11.48;4.75;;;;;;;15.03;100.00;101488.38;5031667;28;20048;-71
2023/06/21 03:21:53;;;;;;;6.93;4.68;;;;;;;15.03;100.00;101491.88;5031974;28;20041;-72
2023/06/21 03:24:19;;;;;;;10.18;4.40;;;;;;;15.05;100.00;101492.59;5031971;28;20030;-72
2023/06/21 03:26:44;;;;;;;10.32;4.97;;;;;;;15.07;100.00;101501.31;5031975;28;20041;-72
2023/06/21 03:29:09;;;;;;;9.15;4.32;;;;;;;15.10;100.00;101497.47;5031773;28;20030;-72
2023/06/21 03:31:35;;;;;;;6.47;4.53;;;;;;;15.12;100.00;101500.84;5031365;28;20112;-72
2023/06/21 03:34:00;;;;;;;6.55;3.97;;;;;;;15.15;100.00;101497.84;5032120;28;20037;-72
2023/06/21 03:36:28;;;;;;;7.78;4.10;;;;;;;15.15;100.00;101496.03;5031586;28;20040;-72
2023/06/21 03:38:53;;;;;;;9.90;4.10;;;;;;;15.16;100.00;101496.88;5031903;28;20044;-72
2023/06/21 03:41:19;;;;;;;5.47;3.63;;;;;;;15.21;100.00;101497.25;5031908;28;20037;-72
2023/06/21 03:43:44;;;;;;;7.15;3.70;;;;;;;15.24;100.00;101496.97;5031427;28;20121;-72
2023/06/21 03:46:10;;;;;;;7.65;3.72;;;;;;;15.26;100.00;101499.47;5031619;28;20465;-72
2023/06/21 03:48:35;;;;;;;6.10;3.63;;;;;;;15.29;100.00;101507.22;5031392;28;20056;-73
2023/06/21 03:51:01;;;;;;;6.28;3.47;;;;;;;15.30;100.00;101507.06;5031783;28;20072;-72
2023/06/21 03:53:27;;;;;;;6.88;3.67;;;;;;;15.33;100.00;101504.06;5031316;28;20037;-73
2023/06/21 03:55:53;;;;;;;6.57;3.70;;;;;;;15.36;100.00;101513.66;5031828;28;20177;-72
2023/06/21 03:58:18;;;;;;;4.68;3.40;;;;;;;15.40;100.00;101514.16;5031563;28;20037;-72
2023/06/21 04:00:44;;;;;;;8.15;3.50;;;;;;;15.42;100.00;101509.50;5032055;28;20040;-72
2023/06/21 04:03:09;;;;;;;5.68;3.70;;;;;;;15.43;100.00;101521.91;5035296;28;20338;-72
2023/06/21 04:05:35;;;;;;;9.95;3.80;;;;;;;15.45;100.00;101523.44;5034800;28;20033;-72
2023/06/21 04:08:00;;;;;;;8.25;3.85;;;;;;;15.47;100.00;101524.13;5034975;28;20036;-73
2023/06/21 04:10:25;;;;;;;7.90;3.78;;;;;;;15.52;100.00;101531.69;5034787;28;20044;-72
2023/06/21 04:12:51;;;;;;;9.35;3.60;;;;;;;15.54;100.00;101521.69;5034915;28;20053;-72
2023/06/21 04:15:16;;;;;;;12.73;4.72;;;;;;;15.58;100.00;101527.56;5034806;28;20029;-73
2023/06/21 04:17:43;;;;;;;9.18;3.58;;;;;;;15.63;100.00;101539.53;5016816;28;20385;-73
2023/06/21 04:20:14;;;;;;;7.93;3.53;;;;;;;15.63;100.00;101542.19;5017144;28;20124;-72
2023/06/21 04:22:41;;;;;;;8.82;3.55;;;;;;;15.71;100.00;101545.94;5034567;28;20484;-72
2023/06/21 04:25:07;;;;;;;8.52;3.55;;;;;;;15.69;100.00;101541.56;5034767;28;20033;-72
2023/06/21 04:27:33;;;;;;;7.18;3.40;;;;;;;15.73;100.00;101539.41;5034291;28;20124;-72
2023/06/21 04:29:59;;;;;;;7.60;3.38;;;;;;;15.75;100.00;101542.78;5034929;28;20482;-72
2023/06/21 04:32:24;;;;;;;7.75;2.97;;;;;;;15.78;100.00;101536.28;5034873;28;20088;-73
2023/06/21 04:34:50;;;;;;;7.45;3.10;;;;;;;15.81;100.00;101542.19;5034248;28;20539;-73
2023/06/21 04:37:18;;;;;;;7.13;3.15;;;;;;;15.84;100.00;101535.69;5034662;28;20037;-72
2023/06/21 04:39:43;;;;;;;7.90;2.80;;;;;;;15.90;100.00;101545.78;5034142;28;20034;-72
2023/06/21 04:42:08;;;;;;;12.90;3.00;;;;;;;15.93;100.00;101536.56;5016474;28;20033;-73
2023/06/21 04:44:34;;;;;;;5.43;3.10;;;;;;;15.97;100.00;101541.47;5034002;28;20059;-71
2023/06/21 04:47:03;;;;;;;6.07;3.17;;;;;;;16.04;100.00;101541.69;5034540;28;20036;-72
2023/06/21 04:49:29;;;;;;;7.63;3.45;;;;;;;16.07;100.00;101541.38;5034402;28;20044;-72
2023/06/21 04:51:57;;;;;;;8.20;3.10;;;;;;;16.10;100.00;101541.03;5034312;28;20060;-73
2023/06/21 04:54:26;;;;;;;6.38;2.70;;;;;;;16.15;100.00;101535.19;5034283;28;20068;-72
2023/06/21 04:56:51;;;;;;;7.13;2.95;;;;;;;16.18;100.00;101545.63;5033463;28;20120;-72
2023/06/21 04:59:17;;;;;;;6.07;2.70;;;;;;;16.19;100.00;101542.78;5034029;28;20525;-73
2023/06/21 05:01:43;;;;;;;4.65;2.60;;;;;;;16.20;100.00;101544.47;5033533;28;20057;-72
2023/06/21 05:04:09;;;;;;;4.15;2.20;;;;;;;16.17;100.00;101546.63;5034086;28;20056;-72
2023/06/21 05:06:34;;;;;;;9.02;3.00;;;;;;;16.14;100.00;101558.53;4999654;28;20476;-72
2023/06/21 05:09:00;;;;;;;9.98;3.67;;;;;;;16.09;100.00;101555.47;5033836;28;20049;-73
2023/06/21 05:11:25;;;;;;;7.18;2.70;;;;;;;16.01;100.00;101561.63;5033741;28;20034;-73
2023/06/21 05:13:50;;;;;;;6.00;2.55;;;;;;;15.99;100.00;101565.47;5033587;28;20084;-72
2023/06/21 05:16:16;;;;;;;4.82;2.83;;;;;;;16.00;100.00;101569.81;5034003;28;20451;-73
2023/06/21 05:18:42;;;;;;;5.28;2.40;;;;;;;16.00;100.00;101568.00;5033531;28;20033;-72
2023/06/21 05:21:07;;;;;;;7.88;2.60;;;;;;;16.03;100.00;101574.88;5016200;28;20033;-72
2023/06/21 05:23:33;;;;;;;7.93;3.05;;;;;;;16.06;100.00;101568.34;5033501;28;20040;-72
2023/06/21 05:25:58;;;;;;;5.30;2.70;;;;;;;16.08;100.00;101567.22;5015902;28;20524;-72
2023/06/21 05:28:24;;;;;;;11.90;3.38;;;;;;;16.13;100.00;101577.47;5033362;28;20065;-72
2023/06/21 05:30:49;;;;;;;9.23;3.22;;;;;;;16.20;100.00;101581.22;5033045;28;20393;-73
2023/06/21 05:33:14;;;;;;;7.07;2.78;;;;;;;16.24;100.00;101582.56;4999571;28;20041;-73
2023/06/21 05:35:40;;;;;;;8.50;3.20;;;;;;;16.26;100.00;101590.47;5015424;28;20087;-72
2023/06/21 05:38:06;;;;;;;6.65;2.92;;;;;;;16.31;100.00;101586.31;5033266;28;20045;-72
2023/06/21 05:40:31;;;;;;;6.57;2.78;;;;;;;16.37;100.00;101587.53;5033345;28;20030;-72
2023/06/21 05:43:01;;;;;;;7.60;2.65;;;;;;;16.43;100.00;101583.38;5032847;28;20037;-72
2023/06/21 05:45:27;;;;;;;7.63;2.72;;;;;;;16.49;100.00;101575.50;5033255;28;20540;-72
2023/06/21 05:47:53;;;;;;;11.85;3.10;;;;;;;16.61;100.00;101585.97;5033018;28;20028;-72
2023/06/21 05:50:18;;;;;;;6.38;2.60;;;;;;;16.71;100.00;101594.75;5033120;28;20037;-73
2023/06/21 05:52:43;;;;;;;6.72;2.75;;;;;;;16.86;100.00;101586.91;5033127;28;20041;-73
2023/06/21 05:55:09;;;;;;;7.50;2.60;;;;;;;16.98;100.00;101585.63;5032984;28;20473;-74
2023/06/21 05:57:34;;;;;;;6.78;2.67;;;;;;;17.12;100.00;101586.84;5033256;28;20135;-71
2023/06/21 06:00:00;;;;;;;4.80;2.20;;;;;;;17.30;100.00;101592.09;5014878;28;20041;-74
2023/06/21 06:02:25;;;;;;;12.82;2.10;;;;;;;17.46;100.00;101596.66;5033280;28;20037;-73
2023/06/21 06:04:50;;;;;;;7.82;2.22;;;;;;;17.61;100.00;101603.06;5032524;28;20323;-72
2023/06/21 06:07:16;;;;;;;7.47;2.10;;;;;;;17.79;100.00;101600.25;5032764;28;20129;-74
2023/06/21 06:09:41;;;;;;;8.68;4.32;;;;;;;17.95;100.00;101602.09;5014561;28;20037;-75
2023/06/21 06:12:07;;;;;;;7.20;1.95;;;;;;;18.10;100.00;101609.50;5032854;28;20033;-75
2023/06/21 06:14:32;;;;;;;7.55;2.85;;;;;;;18.20;100.00;101603.91;5032742;28;20084;-74
2023/06/21 06:16:57;;;;;;;4.70;2.47;;;;;;;18.33;100.00;101605.09;5028760;28;20045;-72
2023/06/21 06:19:23;;;;;;;9.27;2.28;;;;;;;18.43;100.00;101612.97;5032293;28;20370;-72
2023/06/21 06:21:48;;;;;;;6.28;2.10;;;;;;;18.51;100.00;101614.78;5031381;28;20079;-74
2023/06/21 06:24:14;;;;;;;3.92;1.58;;;;;;;18.67;100.00;101622.00;5031683;28;20064;-73
2023/06/21 06:26:39;;;;;;;6.85;1.88;;;;;;;18.77;100.00;101628.03;5014448;28;20461;-76
2023/06/21 06:29:04;;;;;;;5.10;1.73;;;;;;;18.92;100.00;101621.94;5018192;28;20378;-77
2023/06/21 06:31:30;;;;;;;7.00;1.80;;;;;;;19.05;100.00;101624.06;4992659;28;20034;-79
2023/06/21 06:33:55;;;;;;;6.00;1.73;;;;;;;19.11;100.00;101628.75;4992255;28;20038;-79
2023/06/21 06:36:21;;;;;;;6.95;2.08;;;;;;;19.20;100.00;101631.25;5009875;28;20034;-78
2023/06/21 06:38:48;;;;;;;5.13;1.98;;;;;;;19.27;100.00;101623.28;5009613;28;20473;-78
2023/06/21 06:41:14;;;;;;;6.07;1.65;;;;;;;19.39;100.00;101629.09;5009750;28;20041;-78
2023/06/21 06:43:39;;;;;;;5.68;1.90;;;;;;;19.48;100.00;101636.16;5009910;28;20030;-77
2023/06/21 06:46:05;;;;;;;5.88;2.10;;;;;;;19.47;100.00;101633.63;5010132;28;20178;-81
2023/06/21 06:48:30;;;;;;;3.25;1.80;;;;;;;19.46;100.00;101645.44;5010278;28;20533;-75
2023/06/21 06:50:57;;;;;;;7.70;1.90;;;;;;;19.54;100.00;101642.66;5008559;28;20393;-76
2023/06/21 06:53:22;;;;;;;9.38;2.13;;;;;;;19.60;100.00;101647.38;5009488;28;20029;-78
2023/06/21 06:55:51;;;;;;;3.67;1.73;;;;;;;19.67;100.00;101650.19;5009229;28;20411;-78
2023/06/21 06:58:16;;;;;;;4.57;1.60;;;;;;;19.77;100.00;101650.78;5010027;28;20062;-78
2023/06/21 07:00:42;;;;;;;5.38;1.80;;;;;;;19.86;100.00;101657.00;5010818;28;20116;-78
2023/06/21 07:03:07;;;;;;;4.07;1.88;;;;;;;19.84;100.00;101665.28;5009363;28;20346;-78
2023/06/21 07:05:35;;;;;;;4.97;1.52;;;;;;;19.83;100.00;101662.75;5009846;28;20038;-76
2023/06/21 07:08:00;;;;;;;6.55;1.77;;;;;;;19.90;100.00;101663.72;5009213;28;20437;-78
2023/06/21 07:10:26;;;;;;;3.60;1.50;;;;;;;20.01;100.00;101662.44;5009679;28;20046;-78
2023/06/21 07:12:51;;;;;;;4.60;1.77;;;;;;;20.12;100.00;101663.88;5009180;28;20058;-79
2023/06/21 07:15:16;;;;;;;5.88;1.67;;;;;;;20.21;100.00;101670.88;5009687;28;20045;-78
2023/06/21 07:17:42;;;;;;;3.88;1.80;;;;;;;20.30;100.00;101677.03;5008085;28;20037;-78
2023/06/21 07:20:08;;;;;;;3.97;2.10;;;;;;;20.31;100.00;101684.97;5009650;28;20046;-77
2023/06/21 07:22:33;;;;;;;4.40;1.67;;;;;;;20.40;100.00;101680.31;5009684;28;20029;-79
2023/06/21 07:24:59;;;;;;;4.65;1.83;;;;;;;20.49;100.00;101683.78;5009299;28;20029;-76
2023/06/21 07:27:26;;;;;;;5.25;1.88;;;;;;;20.55;100.00;101685.75;5009297;28;20219;-78
2023/06/21 07:29:52;;;;;;;5.00;1.88;;;;;;;20.48;100.00;101682.09;5008962;28;20026;-77
2023/06/21 07:32:17;;;;;;;2.78;1.65;;;;;;;20.49;100.00;101687.31;5008438;28;20398;-76
2023/06/21 07:34:42;;;;;;;3.92;1.73;;;;;;;20.63;100.00;101690.22;5009671;28;20038;-77
2023/06/21 07:37:08;;;;;;;5.55;1.98;;;;;;;20.71;100.00;101691.03;5011834;28;20345;-79
2023/06/21 07:39:33;;;;;;;3.00;1.90;;;;;;;20.80;100.00;101699.06;4995423;28;20133;-75
2023/06/21 07:42:04;;;;;;;5.00;2.00;;;;;;;20.91;100.00;101698.56;5013238;28;20121;-75
2023/06/21 07:44:29;;;;;;;5.15;1.95;;;;;;;21.02;100.00;101686.44;4996212;28;20048;-75
2023/06/21 07:46:55;;;;;;;6.75;2.03;;;;;;;21.13;100.00;101694.91;5012711;28;20456;-74
2023/06/21 07:49:20;;;;;;;6.32;2.10;;;;;;;21.24;100.00;101693.63;5013274;28;20129;-75
2023/06/21 07:51:46;;;;;;;4.18;2.10;;;;;;;21.30;100.00;101700.13;5012834;28;20404;-75
2023/06/21 07:54:11;;;;;;;10.25;2.53;;;;;;;21.27;100.00;101695.94;5012208;28;20125;-75
2023/06/21 07:56:36;;;;;;;4.57;2.10;;;;;;;21.26;100.00;101705.09;5012881;28;20034;-75
2023/06/21 07:59:02;;;;;;;5.75;2.30;;;;;;;21.33;100.00;101699.75;5012467;28;20084;-75
2023/06/21 08:01:27;;;;;;;4.38;2.17;;;;;;;21.40;100.00;101700.66;5013068;28;20030;-75
2023/06/21 08:03:53;;;;;;;6.00;2.05;;;;;;;21.53;100.00;101702.72;5012240;28;20520;-77
2023/06/21 08:06:18;;;;;;;5.80;2.33;;;;;;;21.60;100.00;101709.06;5012809;28;20073;-74
2023/06/21 08:08:43;;;;;;;6.35;2.33;;;;;;;21.70;100.00;101711.44;5012630;28;20430;-75
2023/06/21 08:11:09;;;;;;;11.35;2.78;;;;;;;21.70;100.00;101708.72;5012053;28;20030;-74
2023/06/21 08:13:34;;;;;;;4.93;2.80;;;;;;;21.66;100.00;101723.69;4978147;28;20580;-74
2023/06/21 08:16:00;;;;;;;5.20;2.78;;;;;;;21.74;100.00;101717.34;5011645;28;20136;-73
2023/06/21 08:18:25;;;;;;;9.43;2.83;;;;;;;21.84;100.00;101721.41;5012876;28;20569;-75
2023/06/21 08:20:50;;;;;;;10.35;3.03;;;;;;;21.89;100.00;101712.69;5012309;28;20037;-73
2023/06/21 08:23:16;;;;;;;7.15;2.72;;;;;;;22.09;100.00;101722.88;5011737;28;20030;-73
2023/06/21 08:25:42;;;;;;;6.13;2.45;;;;;;;22.22;100.00;101719.47;5012248;28;20120;-74
2023/06/21 08:28:07;;;;;;;6.97;2.92;;;;;;;22.28;100.00;101721.38;5011647;28;20092;-74
2023/06/21 08:30:32;;;;;;;7.55;2.88;;;;;;;22.40;100.00;101722.56;5011067;28;20409;-74
2023/06/21 08:32:58;;;;;;;6.32;2.63;;;;;;;22.50;100.00;101724.94;5024344;28;20469;-73
2023/06/21 08:35:23;;;;;;;6.57;3.08;;;;;;;22.50;100.00;101727.66;5031475;28;20037;-73
2023/06/21 08:37:56;;;;;;;7.32;2.83;;;;;;;22.52;100.00;101726.41;5034010;28;20033;-73
2023/06/21 08:40:32;;;;;;;7.70;2.88;;;;;;;22.64;100.00;101734.00;5034506;28;20465;-73
2023/06/21 08:42:59;;;;;;;8.93;2.90;;;;;;;22.75;100.00;101725.31;5032383;28;20064;-73
2023/06/21 08:45:25;;;;;;;6.38;2.63;;;;;;;22.94;100.00;101731.06;5034036;28;20108;-73
2023/06/21 08:47:52;;;;;;;10.85;3.00;;;;;;;23.09;100.00;101729.03;5033249;28;20041;-73
2023/06/21 08:50:21;;;;;;;10.20;3.25;;;;;;;23.18;100.00;101735.19;5033107;28;20463;-74
2023/06/21 08:52:49;;;;;;;10.70;2.92;;;;;;;23.50;100.00;101732.84;5034685;28;20091;-75
2023/06/21 08:55:16;;;;;;;7.97;3.58;;;;;;;23.93;100.00;101736.09;5034052;28;20033;-75
2023/06/21 08:57:49;;;;;;;5.35;2.92;;;;;;;23.92;100.00;101734.41;5033950;28;20029;-77
2023/06/21 09:00:23;;;;;;;7.35;2.92;;;;;;;24.28;100.00;101746.78;5033302;28;20029;-74
2023/06/21 09:03:05;;;;;;;8.95;3.22;;;;;;;24.69;100.00;101744.91;5034035;28;20033;-73
2023/06/21 09:05:48;;;;;;;8.07;3.00;;;;;;;24.91;100.00;101740.06;5034253;28;20107;-75
2023/06/21 09:08:17;;;;;;;11.55;3.10;;;;;;;25.33;100.00;101748.78;5033558;28;20075;-75
2023/06/21 09:10:43;;;;;;;7.72;2.70;;;;;;;25.61;100.00;101742.13;5033948;28;20033;-75
2023/06/21 09:13:10;;;;;;;7.55;3.00;;;;;;;26.01;98.14;101743.84;5012538;28;20544;-76
2023/06/21 09:15:37;;;;;;;7.40;3.45;;;;;;;26.21;98.98;101746.41;5012597;28;20046;-76
2023/06/21 09:18:03;;;;;;;8.43;3.20;;;;;;;26.40;87.83;101750.03;5013504;28;20474;-77
2023/06/21 09:20:29;;;;;;;6.00;3.28;;;;;;;26.69;100.00;101745.81;5012910;28;20064;-76
2023/06/21 09:22:59;;;;;;;5.88;2.90;;;;;;;26.93;82.32;101754.16;5014093;28;20034;-76
2023/06/21 09:25:27;;;;;;;5.80;2.83;;;;;;;27.06;86.23;101751.28;5013481;28;20103;-77
2023/06/21 09:27:56;;;;;;;8.98;2.90;;;;;;;27.17;76.76;101751.59;5002103;28;20026;-76
2023/06/21 09:30:22;;;;;;;8.20;2.80;;;;;;;27.26;73.54;101755.69;4992445;28;20038;-77
2023/06/21 09:32:51;;;;;;;5.85;2.90;;;;;;;27.40;76.64;101761.84;4992905;28;20454;-77
2023/06/21 09:35:16;;;;;;;5.45;3.20;;;;;;;27.46;84.23;101751.91;4993693;28;20088;-74
2023/06/21 09:37:42;;;;;;;6.18;2.60;;;;;;;27.39;75.53;101750.06;4993907;28;20058;-75
2023/06/21 09:40:08;;;;;;;6.55;2.85;;;;;;;27.67;78.54;101748.66;4993648;28;20057;-77
2023/06/21 09:42:39;;;;;;;11.68;3.35;;;;;;;28.06;77.02;101754.63;4993640;28;20069;-77
2023/06/21 09:45:20;;;;;;;5.70;3.00;;;;;;;28.06;70.05;101760.09;4993877;28;20045;-75
2023/06/21 09:47:45;;;;;;;;;;;;;;;28.11;76.43;101754.78;4994587;28;20060;-74
2023/06/21 09:50:12;;;;;;;9.82;3.25;;;;;;;28.16;72.57;101754.06;4993507;28;20320;-76
2023/06/21 09:52:43;;;;;;;6.35;2.60;;;;;;;28.41;71.40;101761.22;4993781;28;20037;-75
2023/06/21 09:55:13;;;;;;;7.85;3.00;;;;;;;28.55;76.79;101764.59;4991966;28;20052;-74
2023/06/21 09:57:39;;;;;;;5.30;2.78;;;;;;;28.93;69.12;101766.03;4993709;28;20030;-74
2023/06/21 10:00:07;;;;;;;8.98;3.28;;;;;;;28.98;67.42;101766.16;4993139;28;20460;-75
2023/06/21 10:02:42;;;;;;;7.85;3.88;;;;;;;29.12;70.27;101775.75;4993850;28;20089;-75
2023/06/21 10:05:17;;;;;;;7.70;3.30;;;;;;;29.14;71.20;101776.38;4993246;28;20049;-74
2023/06/21 10:07:46;;;;;;;8.05;3.70;;;;;;;29.51;62.13;101781.56;4993385;28;20034;-76
2023/06/21 10:10:12;;;;;;;8.77;3.50;;;;;;;29.00;59.92;101773.03;4993210;28;20026;-73
2023/06/21 10:12:56;;;;;;;5.63;3.15;;;;;;;29.19;65.71;101783.84;5000105;28;20496;-73
2023/06/21 10:15:22;;;;;;;6.63;2.83;;;;;;;29.34;65.99;101786.94;5032550;28;20033;-74
2023/06/21 10:17:48;;;;;;;6.30;2.90;;;;;;;29.46;71.69;101788.84;5032643;28;20432;-74
2023/06/21 10:20:14;;;;;;;6.13;3.17;;;;;;;29.03;60.93;101796.38;5032256;28;20045;-74
2023/06/21 10:22:43;;;;;;;9.65;3.70;;;;;;;28.65;61.79;101798.53;5032894;28;20408;-76
2023/06/21 10:25:10;;;;;;;7.53;3.20;;;;;;;28.21;64.12;101792.50;5032856;28;20029;-74
2023/06/21 10:27:37;;;;;;;4.53;3.10;;;;;;;27.22;68.18;101800.91;5032444;28;20045;-77
2023/06/21 10:30:04;;;;;;;5.13;2.63;;;;;;;26.38;73.40;101810.25;5032448;28;20083;-76
2023/06/21 10:32:32;;;;;;;6.35;3.72;;;;;;;26.65;77.47;101820.13;5032286;28;20473;-80
2023/06/21 10:35:08;;;;;;;7.60;3.45;;;;;;;27.23;78.41;101818.94;5032232;28;20039;-77
2023/06/21 10:37:52;;;;;;;4.30;2.60;;;;;;;27.69;69.04;101814.84;5025263;28;20065;-76
2023/06/21 10:40:18;;;;;;;4.45;2.85;;;;;;;28.02;64.51;101816.38;5009360;28;20112;-75
2023/06/21 10:42:45;;;;;;;6.55;3.05;;;;;;;28.25;67.71;101817.50;5010333;28;20076;-75
2023/06/21 10:45:12;;;;;;;5.15;2.40;;;;;;;28.56;60.13;101807.28;5010112;28;20375;-76
2023/06/21 10:47:39;;;;;;;5.70;2.75;;;;;;;28.79;61.85;101803.78;5010286;28;20034;-77
2023/06/21 10:50:09;;;;;;;6.03;3.00;;;;;;;29.01;61.83;101809.50;4992147;28;20030;-77
2023/06/21 10:52:35;;;;;;;6.90;3.17;;;;;;;29.45;58.08;101820.88;5009377;28;20042;-75
2023/06/21 10:55:02;;;;;;;5.90;2.90;;;;;;;29.80;62.17;101817.19;5010190;28;20037;-76
2023/06/21 10:57:29;;;;;;;9.70;3.97;;;;;;;29.15;61.28;101824.59;5009198;28;20038;-74
2023/06/21 10:59:57;;;;;;;12.18;4.05;;;;;;;28.24;66.30;101819.38;4991816;28;20042;-75
2023/06/21 11:02:23;;;;;;;11.57;4.03;;;;;;;27.07;77.82;101826.69;5008891;28;20068;-77
2023/06/21 11:05:16;;;;;;;7.65;4.60;;;;;;;25.63;89.69;101840.88;5009847;28;20030;-76
2023/06/21 11:07:49;;;;;;;9.57;4.15;;;;;;;24.72;100.00;101847.91;5009741;28;20026;-75
2023/06/21 11:10:14;;;;;;;17.58;5.25;;;;;;;24.51;100.00;101846.16;5011223;28;20470;-77
2023/06/21 11:12:40;;;;;;;9.55;4.25;;;;;;;25.28;100.00;101848.47;4995926;28;20072;-76
2023/06/21 11:15:06;;;;;;;9.15;4.03;;;;;;;26.69;87.65;101856.84;5013354;28;20113;-76
2023/06/21 11:17:36;;;;;;;11.40;4.53;;;;;;;27.42;80.64;101856.22;5013259;28;20545;-76
2023/06/21 11:20:50;;;;;;;10.68;4.18;;;;;;;27.77;75.71;101873.88;5013732;28;20033;-78